Time;durP1;ratioP1;P1;durP2;ratioP2;P2;SDS_P1;SDS_P2;PMS_P1;PMS_P2;Temp;Humidity;BMP_temperature;BMP_pressure;BME280_temperature;BME280_humidity;BME280_pressure;Samples;Min_cycle;Max_cycle;Signal;HPM_P1;HPM_P2
2022/06/18 00:00:23;;;;;;;4.22;2.65;;;16.30;99.90;;;;;;5032888;28;20122;-53
2022/06/18 00:02:50;;;;;;;2.50;2.30;;;16.20;99.90;;;;;;5032793;28;20052;-55
2022/06/18 00:05:19;;;;;;;3.83;2.30;;;16.20;99.90;;;;;;5030453;28;20041;-55
2022/06/18 00:07:50;;;;;;;6.32;2.33;;;16.20;99.90;;;;;;5033984;28;20044;-57
2022/06/18 00:10:24;;;;;;;4.10;2.35;;;16.20;99.90;;;;;;5032539;28;20729;-55
2022/06/18 00:15:39;;;;;;;3.90;2.40;;;16.20;99.90;;;;;;5033050;28;20742;-55
2022/06/18 00:18:11;;;;;;;3.28;2.13;;;16.20;99.90;;;;;;5033581;28;20045;-54
2022/06/18 00:20:39;;;;;;;4.47;2.80;;;16.10;99.90;;;;;;5034540;28;20048;-55
2022/06/18 00:23:12;;;;;;;3.05;2.38;;;16.20;99.90;;;;;;5037338;28;20045;-55
2022/06/18 00:25:42;;;;;;;3.83;2.22;;;16.10;99.90;;;;;;5037254;28;20048;-55
2022/06/18 00:28:21;;;;;;;5.93;2.75;;;16.10;99.90;;;;;;5036273;28;20059;-56
2022/06/18 00:30:50;;;;;;;3.50;2.28;;;16.20;99.90;;;;;;5037396;28;20045;-55
2022/06/18 00:33:18;;;;;;;3.83;2.67;;;16.20;99.90;;;;;;5036654;28;20499;-55
2022/06/18 00:35:45;;;;;;;4.50;2.30;;;16.30;99.90;;;;;;5037105;28;20060;-55
2022/06/18 00:38:24;;;;;;;6.28;2.40;;;16.30;99.90;;;;;;5034883;28;20091;-55
2022/06/18 00:40:52;;;;;;;4.15;2.22;;;16.30;99.90;;;;;;5035466;28;20056;-53
2022/06/18 00:43:43;;;;;;;2.50;2.05;;;16.30;99.50;;;;;;5036367;28;20487;-54
2022/06/18 00:46:43;;;;;;;8.77;2.22;;;16.40;99.60;;;;;;5036653;28;20659;-54
2022/06/18 00:49:13;;;;;;;8.43;2.75;;;16.50;99.90;;;;;;5036345;28;20044;-58
2022/06/18 00:51:49;;;;;;;4.47;2.33;;;16.50;99.90;;;;;;5035209;28;20716;-54
2022/06/18 00:54:39;;;;;;;4.65;2.42;;;16.50;99.40;;;;;;5036213;28;20056;-54
2022/06/18 00:57:17;;;;;;;2.30;2.10;;;16.50;99.70;;;;;;5036573;28;20045;-56
2022/06/18 01:00:06;;;;;;;2.30;2.05;;;16.50;99.20;;;;;;5033989;28;20076;-55
2022/06/18 01:02:35;;;;;;;;;;;16.40;99.00;;;;;;5037411;28;20045;-55
2022/06/18 01:05:23;;;;;;;3.20;1.90;;;16.50;99.90;;;;;;5031411;28;19932;-54
2022/06/18 01:08:03;;;;;;;8.20;2.33;;;16.40;99.70;;;;;;5036662;28;20048;-55
2022/06/18 01:10:32;;;;;;;3.22;2.05;;;16.40;99.90;;;;;;5034330;28;20053;-55
2022/06/18 01:13:04;;;;;;;8.40;1.80;;;16.40;99.90;;;;;;5035459;28;20056;-53
2022/06/18 01:15:35;;;;;;;2.45;1.60;;;16.30;99.80;;;;;;5035015;28;20056;-56
2022/06/18 01:18:04;;;;;;;2.25;2.05;;;16.30;99.90;;;;;;5035811;28;20037;-54
2022/06/18 01:20:37;;;;;;;2.80;1.70;;;16.30;99.90;;;;;;5034719;28;20041;-55
2022/06/18 01:23:16;;;;;;;4.45;2.00;;;16.30;99.90;;;;;;5034311;28;20045;-55
2022/06/18 01:25:43;;;;;;;3.70;2.10;;;16.30;99.90;;;;;;5034612;28;21152;-56
2022/06/18 01:28:13;;;;;;;5.07;1.77;;;16.20;99.90;;;;;;5033938;28;20087;-55
2022/06/18 01:30:41;;;;;;;4.72;2.13;;;16.20;99.90;;;;;;5035646;28;20044;-52
2022/06/18 01:33:14;;;;;;;2.70;2.00;;;16.20;99.90;;;;;;5033786;28;20131;-55
2022/06/18 01:35:48;;;;;;;15.20;2.45;;;16.20;99.90;;;;;;5034420;28;20052;-54
2022/06/18 01:38:20;;;;;;;2.47;1.80;;;16.10;99.90;;;;;;5033330;28;20176;-55
2022/06/18 01:41:49;;;;;;;2.85;2.63;;;16.10;99.90;;;;;;5033773;28;20153;-52
2022/06/18 01:43:55;;;;;;;2.22;1.95;;;16.10;99.90;;;;;;5033366;28;20053;-54
2022/06/18 01:46:25;;;;;;;1.92;1.73;;;16.10;99.90;;;;;;5033622;28;20041;-55
2022/06/18 01:48:55;;;;;;;2.17;1.75;;;16.10;99.90;;;;;;5035294;28;20048;-54
2022/06/18 01:51:31;;;;;;;2.25;2.03;;;16.00;99.90;;;;;;5033206;28;20064;-55
2022/06/18 01:54:30;;;;;;;2.42;1.83;;;16.00;99.90;;;;;;5034150;28;20148;-54
2022/06/18 01:57:05;;;;;;;2.42;2.00;;;16.00;99.90;;;;;;5033660;28;20049;-54
2022/06/18 01:59:37;;;;;;;2.00;1.80;;;16.00;99.90;;;;;;5033627;28;20045;-55
2022/06/18 02:02:06;;;;;;;2.78;1.73;;;15.90;99.90;;;;;;5033414;28;20049;-55
2022/06/18 02:04:34;;;;;;;3.58;2.38;;;15.90;99.90;;;;;;5032608;28;20162;-55
2022/06/18 02:07:07;;;;;;;2.63;2.30;;;15.90;99.90;;;;;;5028433;28;20045;-55
2022/06/18 02:09:49;;;;;;;2.97;2.30;;;15.80;99.90;;;;;;5033452;28;20055;-55
2022/06/18 02:12:23;;;;;;;2.88;2.50;;;15.80;99.90;;;;;;5035181;28;20060;-53
2022/06/18 02:14:54;;;;;;;3.13;2.47;;;15.70;99.90;;;;;;5033446;28;20055;-54
2022/06/18 02:17:22;;;;;;;2.40;2.20;;;15.60;99.90;;;;;;5035146;28;20060;-55
2022/06/18 02:19:54;;;;;;;4.05;2.22;;;15.60;99.90;;;;;;5015932;28;20041;-55
2022/06/18 02:22:38;;;;;;;2.30;2.08;;;15.50;99.90;;;;;;5032943;28;20036;-56
2022/06/18 02:25:07;;;;;;;2.30;1.90;;;15.50;99.90;;;;;;5016916;28;20107;-55
2022/06/18 02:27:35;;;;;;;2.00;1.80;;;15.50;99.90;;;;;;5034941;28;20126;-55
2022/06/18 02:30:02;;;;;;;3.28;2.38;;;15.50;99.90;;;;;;5034204;28;20048;-55
2022/06/18 02:32:45;;;;;;;2.42;2.17;;;15.50;99.90;;;;;;5032230;28;20886;-55
2022/06/18 02:35:15;;;;;;;2.05;1.85;;;15.60;99.90;;;;;;5032814;28;20045;-53
2022/06/18 02:37:43;;;;;;;4.32;2.55;;;15.60;99.90;;;;;;5032964;28;20041;-55
2022/06/18 02:40:21;;;;;;;4.25;1.85;;;15.60;99.90;;;;;;5033470;28;20041;-54
2022/06/18 02:42:49;;;;;;;2.00;1.80;;;15.60;99.90;;;;;;5032485;28;20045;-56
2022/06/18 02:45:18;;;;;;;6.22;2.20;;;15.60;99.90;;;;;;5031416;28;20052;-55
2022/06/18 02:47:45;;;;;;;3.03;1.80;;;15.60;99.90;;;;;;5033173;28;20103;-55
2022/06/18 02:50:15;;;;;;;5.70;1.90;;;15.60;99.90;;;;;;5032259;28;20090;-55
2022/06/18 02:52:54;;;;;;;6.53;1.83;;;15.60;99.90;;;;;;5032587;28;20079;-54
2022/06/18 02:55:20;;;;;;;;;;;15.60;99.90;;;;;;5017660;28;20040;-55
2022/06/18 02:57:55;;;;;;;2.20;1.90;;;15.60;99.90;;;;;;5032119;28;20635;-54
2022/06/18 03:00:22;;;;;;;3.22;1.52;;;15.50;99.90;;;;;;5034111;28;20503;-54
2022/06/18 03:02:49;;;;;;;4.00;1.80;;;15.50;99.90;;;;;;5027806;28;20536;-55
2022/06/18 03:05:26;;;;;;;2.30;2.05;;;15.50;99.90;;;;;;5032354;28;20535;-54
2022/06/18 03:07:52;;;;;;;2.70;2.17;;;15.50;99.90;;;;;;5028448;28;20070;-53
2022/06/18 03:13:18;;;;;;;4.23;1.70;;;15.50;99.90;;;;;;5014008;28;20027;-56
2022/06/18 03:15:52;;;;;;;2.75;1.90;;;15.50;99.90;;;;;;5049390;28;20063;-54
2022/06/18 03:18:21;;;;;;;1.77;1.67;;;15.40;99.90;;;;;;5048880;28;20053;-54
2022/06/18 03:21:15;;;;;;;1.92;1.70;;;15.40;99.90;;;;;;5033955;28;20077;-55
2022/06/18 03:23:44;;;;;;;2.83;2.20;;;15.40;99.90;;;;;;5033014;28;20068;-56
2022/06/18 03:26:11;;;;;;;1.70;1.60;;;15.40;99.90;;;;;;5032842;28;20045;-55
2022/06/18 03:28:40;;;;;;;5.82;1.95;;;15.40;99.90;;;;;;5016173;28;20060;-56
2022/06/18 03:31:08;;;;;;;2.88;1.55;;;15.30;99.90;;;;;;5015983;28;20075;-52
2022/06/18 03:33:38;;;;;;;3.67;2.65;;;15.30;99.90;;;;;;5032496;28;20621;-55
2022/06/18 03:36:06;;;;;;;4.45;2.00;;;15.30;99.90;;;;;;5032170;28;20122;-54
2022/06/18 03:38:34;;;;;;;2.80;1.88;;;15.30;99.90;;;;;;5032388;28;20043;-57
2022/06/18 03:41:01;;;;;;;2.10;1.85;;;15.30;99.90;;;;;;5031769;28;20049;-56
2022/06/18 03:43:30;;;;;;;1.60;1.50;;;15.30;99.90;;;;;;5032172;28;20655;-54
2022/06/18 03:46:01;;;;;;;4.32;2.17;;;15.30;99.90;;;;;;5032067;28;20171;-55
2022/06/18 03:48:41;;;;;;;4.53;2.08;;;15.20;99.90;;;;;;5031886;28;20060;-54
2022/06/18 03:51:10;;;;;;;3.20;1.67;;;15.30;99.90;;;;;;5032132;28;20091;-54
2022/06/18 03:53:37;;;;;;;2.95;2.28;;;15.30;99.90;;;;;;5031626;28;20246;-54
2022/06/18 03:56:05;;;;;;;2.30;1.92;;;15.40;99.90;;;;;;5020214;28;20136;-53
2022/06/18 03:58:38;;;;;;;2.47;1.90;;;15.40;99.90;;;;;;5019528;28;20049;-55
2022/06/18 04:01:06;;;;;;;2.08;1.88;;;15.40;99.90;;;;;;5036242;28;20132;-53
2022/06/18 04:03:35;;;;;;;6.60;2.13;;;15.50;99.90;;;;;;5035365;28;20153;-54
2022/06/18 04:06:03;;;;;;;2.30;2.08;;;15.50;99.90;;;;;;5035741;28;20045;-55
2022/06/18 04:08:30;;;;;;;3.03;1.88;;;15.50;99.90;;;;;;5028626;28;20072;-54
2022/06/18 04:11:00;;;;;;;1.98;1.83;;;15.60;99.90;;;;;;5020180;28;20041;-55
2022/06/18 04:13:28;;;;;;;2.13;1.90;;;15.60;99.90;;;;;;5036311;28;20056;-55
2022/06/18 04:16:15;;;;;;;2.30;2.10;;;15.60;99.90;;;;;;5035638;28;20045;-52
2022/06/18 04:18:43;;;;;;;2.45;2.13;;;15.60;99.90;;;;;;5035374;28;20760;-54
2022/06/18 04:21:13;;;;;;;2.08;1.70;;;15.70;99.90;;;;;;5035991;28;20040;-55
2022/06/18 04:23:41;;;;;;;1.80;1.70;;;15.70;99.90;;;;;;5035650;28;20048;-54
2022/06/18 04:26:09;;;;;;;2.85;1.85;;;15.80;99.90;;;;;;5035369;28;20044;-55
2022/06/18 04:28:39;;;;;;;1.80;1.70;;;15.80;99.90;;;;;;5027341;28;20036;-53
2022/06/18 04:31:11;;;;;;;4.28;2.50;;;15.90;99.90;;;;;;5035541;28;20084;-54
2022/06/18 04:33:42;;;;;;;5.53;2.22;;;15.90;99.90;;;;;;5037243;28;20053;-54
2022/06/18 04:36:35;;;;;;;2.35;2.15;;;15.90;99.90;;;;;;5034994;28;20745;-55
2022/06/18 04:39:08;;;;;;;2.55;2.00;;;16.00;99.90;;;;;;5035053;28;20045;-53
2022/06/18 04:41:56;;;;;;;2.80;2.15;;;16.00;99.90;;;;;;5035248;28;20703;-55
2022/06/18 04:44:25;;;;;;;2.67;2.25;;;16.10;99.90;;;;;;5035748;28;20135;-54
2022/06/18 04:47:09;;;;;;;2.45;2.25;;;16.10;99.90;;;;;;5035534;28;20756;-55
2022/06/18 04:49:37;;;;;;;3.58;2.05;;;16.20;99.90;;;;;;5034632;28;20128;-55
2022/06/18 04:52:06;;;;;;;4.53;2.20;;;16.20;99.90;;;;;;5019796;28;20750;-53
2022/06/18 04:54:41;;;;;;;2.03;1.88;;;16.30;99.90;;;;;;5035263;28;20060;-55
2022/06/18 04:57:07;;;;;;;3.00;2.00;;;16.40;99.90;;;;;;5037106;28;20532;-54
2022/06/18 04:59:38;;;;;;;2.67;2.00;;;16.40;99.90;;;;;;5033779;28;20546;-54
2022/06/18 05:02:13;;;;;;;2.55;2.30;;;16.50;99.90;;;;;;5035429;28;20074;-53
2022/06/18 05:04:58;;;;;;;2.28;2.08;;;16.60;99.90;;;;;;5029661;28;20055;-55
2022/06/18 05:07:51;;;;;;;2.75;1.95;;;16.70;99.90;;;;;;5018320;28;20581;-55
2022/06/18 05:10:39;;;;;;;2.22;1.98;;;16.80;99.90;;;;;;5031688;28;20195;-54
2022/06/18 05:13:18;;;;;;;3.08;2.08;;;16.90;99.90;;;;;;5019956;28;20060;-53
2022/06/18 05:15:50;;;;;;;2.45;2.13;;;17.00;99.90;;;;;;5018231;28;20287;-56
2022/06/18 05:18:18;;;;;;;3.08;2.15;;;17.10;99.90;;;;;;5034977;28;20576;-55
2022/06/18 05:20:51;;;;;;;4.75;2.20;;;17.20;99.90;;;;;;5034042;28;20040;-55
2022/06/18 05:23:21;;;;;;;2.78;1.98;;;17.30;99.90;;;;;;5035441;28;20132;-55
2022/06/18 05:25:54;;;;;;;8.32;2.40;;;17.40;99.90;;;;;;5034301;28;20916;-54
2022/06/18 05:28:21;;;;;;;2.78;2.20;;;17.50;99.90;;;;;;5034194;28;20041;-53
2022/06/18 05:30:48;;;;;;;2.15;1.88;;;17.60;99.90;;;;;;5035031;28;20044;-50
2022/06/18 05:33:15;;;;;;;2.10;1.90;;;17.70;99.90;;;;;;5017641;28;20570;-48
2022/06/18 05:35:46;;;;;;;7.30;2.20;;;17.90;99.90;;;;;;5034726;28;20457;-47
2022/06/18 05:38:16;;;;;;;4.70;2.08;;;18.00;99.90;;;;;;5033730;28;20065;-48
2022/06/18 05:40:44;;;;;;;5.50;2.60;;;18.10;99.90;;;;;;5034307;28;20195;-48
2022/06/18 05:43:11;;;;;;;4.00;1.67;;;18.30;99.90;;;;;;5035955;28;20033;-47
2022/06/18 05:45:38;;;;;;;2.65;1.90;;;18.40;99.90;;;;;;5034476;28;20426;-51
2022/06/18 05:48:11;;;;;;;6.40;1.90;;;18.50;99.90;;;;;;5033870;28;20044;-49
2022/06/18 05:50:38;;;;;;;2.83;2.05;;;18.60;99.90;;;;;;5033756;28;20099;-48
2022/06/18 05:53:05;;;;;;;2.83;2.05;;;18.70;99.90;;;;;;5034990;28;20059;-48
2022/06/18 05:55:55;;;;;;;2.60;2.15;;;18.80;99.90;;;;;;4988937;28;20063;-47
2022/06/18 05:58:45;;;;;;;6.70;2.13;;;18.90;99.90;;;;;;5024314;28;21134;-49
2022/06/18 06:01:18;;;;;;;3.55;2.28;;;19.10;99.90;;;;;;5033569;28;20457;-48
2022/06/18 06:03:45;;;;;;;2.00;1.80;;;19.20;99.90;;;;;;5033321;28;20053;-48
2022/06/18 06:06:12;;;;;;;5.15;1.77;;;19.30;99.90;;;;;;5000893;28;20041;-48
2022/06/18 06:08:43;;;;;;;3.38;1.55;;;19.40;99.90;;;;;;5030405;28;20041;-50
2022/06/18 06:13:59;;;;;;;1.70;1.58;;;19.70;99.90;;;;;;5034648;28;20052;-63
2022/06/18 06:16:27;;;;;;;2.30;1.73;;;19.90;99.90;;;;;;5034930;28;20106;-64
2022/06/18 06:18:58;;;;;;;1.73;1.60;;;20.00;99.90;;;;;;5034000;28;20560;-64
2022/06/18 06:21:25;;;;;;;3.92;1.95;;;20.10;99.90;;;;;;5034585;28;20634;-62
2022/06/18 06:23:52;;;;;;;2.20;1.83;;;20.30;99.90;;;;;;5035897;28;20044;-63
2022/06/18 06:26:23;;;;;;;3.65;1.85;;;20.40;99.90;;;;;;5033461;28;20048;-64
2022/06/18 06:28:50;;;;;;;2.88;1.83;;;20.50;99.90;;;;;;5034845;28;20064;-65
2022/06/18 06:31:18;;;;;;;4.07;1.90;;;20.70;99.90;;;;;;5035036;28;20518;-65
2022/06/18 06:33:45;;;;;;;1.88;1.38;;;20.80;99.60;;;;;;5033856;28;20838;-61
2022/06/18 06:36:12;;;;;;;1.67;1.50;;;20.90;99.10;;;;;;5034045;28;20045;-65
2022/06/18 06:38:39;;;;;;;3.13;1.40;;;21.10;98.50;;;;;;5034562;28;20049;-62
2022/06/18 06:41:12;;;;;;;2.15;1.80;;;21.20;97.20;;;;;;5034452;28;20041;-63
2022/06/18 06:43:39;;;;;;;4.28;1.65;;;21.40;92.50;;;;;;5033656;28;20132;-64
2022/06/18 06:46:13;;;;;;;2.30;1.95;;;21.40;91.60;;;;;;5033883;28;20154;-63
2022/06/18 06:48:41;;;;;;;1.90;1.58;;;21.60;92.80;;;;;;5033940;28;20041;-60
2022/06/18 06:51:21;;;;;;;3.72;1.67;;;21.70;92.90;;;;;;5034886;28;20045;-67
2022/06/18 06:53:48;;;;;;;2.33;1.40;;;21.80;92.90;;;;;;5035103;28;20052;-67
2022/06/18 06:59:05;;;;;;;1.63;1.50;;;22.10;93.70;;;;;;5034304;28;20069;-65
2022/06/18 07:01:34;;;;;;;10.07;1.55;;;22.20;91.00;;;;;;5034541;28;20568;-67
2022/06/18 07:04:06;;;;;;;2.40;1.45;;;22.40;87.20;;;;;;5033194;28;20040;-63
2022/06/18 07:06:35;;;;;;;7.90;2.00;;;22.50;88.50;;;;;;5014471;28;20045;-61
2022/06/18 07:09:04;;;;;;;2.95;1.20;;;22.60;88.90;;;;;;5016386;28;20106;-61
2022/06/18 07:11:33;;;;;;;2.05;1.75;;;22.70;91.20;;;;;;5018672;28;20103;-62
2022/06/18 07:14:00;;;;;;;2.17;1.80;;;22.90;92.00;;;;;;5014001;28;20041;-62
2022/06/18 07:16:27;;;;;;;2.10;1.88;;;23.00;92.20;;;;;;5015873;28;20144;-62
2022/06/18 07:18:56;;;;;;;2.97;1.90;;;23.10;91.30;;;;;;5033145;28;20045;-61
2022/06/18 07:21:24;;;;;;;2.25;2.05;;;23.30;89.50;;;;;;5035087;28;20049;-62
2022/06/18 07:23:51;;;;;;;3.80;1.70;;;23.30;87.80;;;;;;5034288;28;20044;-62
2022/06/18 07:26:21;;;;;;;3.00;1.60;;;23.40;88.00;;;;;;5034976;28;20047;-60
2022/06/18 07:28:48;;;;;;;5.57;2.35;;;23.50;88.60;;;;;;5033470;28;20041;-61
2022/06/18 07:31:25;;;;;;;2.25;1.80;;;23.70;89.30;;;;;;5037439;28;20071;-57
2022/06/18 07:33:56;;;;;;;3.78;1.73;;;23.70;88.20;;;;;;5029805;28;20480;-60
2022/06/18 07:36:22;;;;;;;2.47;1.90;;;23.90;91.10;;;;;;5035980;28;20045;-61
2022/06/18 07:38:49;;;;;;;7.68;2.40;;;24.00;91.10;;;;;;5036421;28;20040;-60
2022/06/18 07:41:18;;;;;;;27.50;5.15;;;24.10;89.00;;;;;;5038135;28;20050;-60
2022/06/18 07:43:53;;;;;;;5.82;2.38;;;24.20;93.90;;;;;;5038261;28;20037;-62
2022/06/18 07:46:20;;;;;;;4.78;2.03;;;24.30;93.10;;;;;;5038034;28;20044;-62
2022/06/18 07:48:47;;;;;;;6.20;1.92;;;24.40;94.10;;;;;;5037841;28;20044;-61
2022/06/18 07:51:14;;;;;;;8.68;2.47;;;24.40;94.90;;;;;;5037603;28;20045;-63
2022/06/18 07:53:43;;;;;;;2.00;1.80;;;24.60;94.00;;;;;;5036845;28;20053;-63
2022/06/18 07:56:14;;;;;;;5.10;2.05;;;24.80;92.50;;;;;;5037586;28;20072;-63
2022/06/18 07:58:41;;;;;;;4.65;1.95;;;24.90;91.50;;;;;;5036422;28;20048;-63
2022/06/18 08:01:08;;;;;;;2.53;1.95;;;25.00;85.60;;;;;;5037515;28;20542;-62
2022/06/18 08:03:35;;;;;;;4.40;3.10;;;25.00;89.10;;;;;;5038171;28;20048;-63
2022/06/18 08:06:03;;;;;;;2.97;2.67;;;25.10;91.00;;;;;;5038072;28;20126;-62
2022/06/18 08:08:30;;;;;;;12.68;2.67;;;25.30;92.60;;;;;;5036301;28;20198;-63
2022/06/18 08:11:05;;;;;;;4.03;2.47;;;25.40;91.80;;;;;;5036415;28;20036;-60
2022/06/18 08:13:32;;;;;;;2.85;2.17;;;25.50;90.00;;;;;;5031123;28;20056;-61
2022/06/18 08:16:00;;;;;;;5.78;2.80;;;25.60;87.80;;;;;;5037025;28;20660;-60
2022/06/18 08:18:26;;;;;;;5.95;2.63;;;25.80;86.80;;;;;;5037056;28;20045;-58
2022/06/18 08:21:04;;;;;;;5.65;2.88;;;25.90;90.20;;;;;;5038291;28;20128;-61
2022/06/18 08:23:33;;;;;;;6.18;2.80;;;26.10;90.40;;;;;;5031293;28;20158;-59
2022/06/18 08:26:00;;;;;;;7.82;2.50;;;26.30;90.40;;;;;;5030490;28;20048;-60
2022/06/18 08:28:27;;;;;;;3.65;2.97;;;26.50;92.00;;;;;;5026685;28;20646;-61
2022/06/18 08:30:54;;;;;;;5.05;2.47;;;26.80;91.10;;;;;;5037561;28;20040;-59
2022/06/18 08:33:20;;;;;;;5.10;3.10;;;27.10;84.50;;;;;;5037613;28;20048;-60
2022/06/18 08:35:48;;;;;;;3.58;2.90;;;27.40;85.40;;;;;;5036987;28;20079;-59
2022/06/18 08:38:14;;;;;;;7.43;3.42;;;27.70;82.60;;;;;;5033069;28;20049;-65
2022/06/18 08:41:19;;;;;;;3.25;2.45;;;27.90;74.20;;;;;;5032322;28;20943;-65
2022/06/18 08:44:01;;;;;;;4.00;2.40;;;28.00;75.90;;;;;;5027908;28;20083;-62
2022/06/18 08:46:43;;;;;;;3.70;2.08;;;28.10;70.00;;;;;;5036483;28;20037;-65
2022/06/18 08:49:34;;;;;;;4.78;3.08;;;28.30;68.00;;;;;;5017069;28;20076;-59
2022/06/18 08:52:38;;;;;;;8.77;2.65;;;28.40;69.70;;;;;;5025339;28;20045;-60
2022/06/18 08:55:22;;;;;;;4.88;2.00;;;28.70;65.20;;;;;;5034276;28;20117;-62
2022/06/18 08:58:00;;;;;;;2.10;1.92;;;28.90;58.20;;;;;;5026813;28;20037;-63
2022/06/18 09:00:58;;;;;;;2.38;2.17;;;29.10;58.60;;;;;;5035615;28;20045;-62
2022/06/18 09:03:37;;;;;;;10.63;1.95;;;29.30;55.30;;;;;;5000931;28;20053;-65
2022/06/18 09:06:13;;;;;;;5.03;2.35;;;29.40;54.80;;;;;;5033535;28;20601;-66
2022/06/18 09:09:01;;;;;;;5.50;2.30;;;29.40;54.40;;;;;;5014892;28;20060;-66
2022/06/18 09:11:37;;;;;;;3.40;2.30;;;29.40;52.10;;;;;;5021006;28;20049;-65
2022/06/18 09:14:14;;;;;;;2.27;1.67;;;29.50;54.00;;;;;;5021478;28;20038;-65
2022/06/18 09:16:50;;;;;;;1.52;1.20;;;29.70;48.60;;;;;;5031432;28;20037;-64
2022/06/18 09:19:21;;;;;;;2.70;1.88;;;29.80;45.40;;;;;;5036256;28;20678;-62
2022/06/18 09:21:53;;;;;;;1.70;1.60;;;29.90;48.30;;;;;;5036373;28;20055;-64
2022/06/18 09:24:34;;;;;;;5.45;1.70;;;30.00;47.90;;;;;;5036532;28;20590;-64
2022/06/18 09:27:05;;;;;;;4.25;2.20;;;30.10;49.40;;;;;;5036648;28;20041;-63
2022/06/18 09:29:43;;;;;;;4.68;1.52;;;30.20;48.90;;;;;;5036012;28;20072;-66
2022/06/18 09:32:23;;;;;;;6.35;1.77;;;30.40;47.90;;;;;;5035046;28;20338;-65
2022/06/18 09:35:20;;;;;;;4.53;2.17;;;30.60;49.20;;;;;;5036040;28;20771;-61
2022/06/18 09:38:05;;;;;;;3.60;1.70;;;30.80;49.90;;;;;;5036409;28;20045;-60
2022/06/18 09:40:40;;;;;;;2.67;1.90;;;30.90;49.50;;;;;;5035325;28;20459;-63
2022/06/18 09:43:12;;;;;;;1.92;1.48;;;31.10;46.90;;;;;;5034652;28;20037;-59
2022/06/18 09:45:45;;;;;;;3.78;1.67;;;31.30;46.50;;;;;;5034108;28;20063;-60
2022/06/18 09:48:13;;;;;;;3.58;1.65;;;31.50;48.20;;;;;;5035573;28;20052;-58
2022/06/18 09:50:48;;;;;;;6.20;2.35;;;31.60;47.20;;;;;;5035403;28;20284;-60
2022/06/18 09:53:42;;;;;;;3.17;2.17;;;31.80;47.20;;;;;;5035583;28;20048;-59
2022/06/18 09:56:24;;;;;;;5.93;2.08;;;32.00;44.20;;;;;;5032557;28;20087;-60
2022/06/18 09:58:57;;;;;;;2.08;1.63;;;32.10;47.20;;;;;;5035463;28;20041;-60
2022/06/18 10:01:45;;;;;;;2.72;2.30;;;32.30;44.30;;;;;;5035621;28;20654;-60
2022/06/18 10:07:23;;;;;;;2.17;1.65;;;32.50;48.80;;;;;;5035249;28;20101;-59
2022/06/18 10:09:57;;;;;;;4.35;2.13;;;32.70;48.10;;;;;;5033344;28;20056;-60
2022/06/18 10:12:26;;;;;;;2.95;2.20;;;32.80;45.80;;;;;;5032530;28;20053;-59
2022/06/18 10:14:56;;;;;;;2.25;2.03;;;32.90;45.80;;;;;;5031087;28;20111;-58
2022/06/18 10:18:02;;;;;;;4.20;2.00;;;32.90;47.20;;;;;;5035386;28;20048;-59
2022/06/18 10:20:55;;;;;;;4.07;1.80;;;33.10;47.00;;;;;;5035391;28;20040;-58
2022/06/18 10:23:36;;;;;;;1.85;1.67;;;33.20;46.30;;;;;;5035396;28;20558;-58
2022/06/18 10:26:19;;;;;;;3.42;2.03;;;33.30;44.10;;;;;;5035411;28;20036;-59
2022/06/18 10:28:57;;;;;;;4.22;1.83;;;33.40;44.30;;;;;;5015053;28;20034;-60
2022/06/18 10:31:55;;;;;;;5.10;1.90;;;33.40;44.50;;;;;;5015355;28;20057;-58
2022/06/18 10:34:50;;;;;;;4.82;1.45;;;33.50;44.30;;;;;;5015174;28;20679;-58
2022/06/18 10:37:23;;;;;;;2.95;1.80;;;33.60;42.70;;;;;;5014936;28;20225;-59
2022/06/18 10:40:37;;;;;;;2.47;1.77;;;33.70;42.10;;;;;;5014451;28;20060;-59
2022/06/18 10:43:06;;;;;;;3.40;1.70;;;33.80;43.00;;;;;;5034544;28;20048;-62
2022/06/18 10:46:10;;;;;;;2.92;1.77;;;33.80;42.10;;;;;;5028611;28;20068;-61
2022/06/18 10:48:42;;;;;;;3.10;1.90;;;33.90;40.00;;;;;;5033241;28;20049;-62
2022/06/18 10:51:16;;;;;;;1.40;1.30;;;34.00;40.80;;;;;;5034091;28;20249;-61
2022/06/18 10:53:50;;;;;;;3.45;1.63;;;34.10;40.70;;;;;;5035019;28;20056;-62
2022/06/18 10:56:23;;;;;;;4.18;2.20;;;34.20;40.80;;;;;;5035022;28;20045;-63
2022/06/18 10:58:55;;;;;;;2.28;1.70;;;34.30;39.40;;;;;;5033003;28;20071;-62
2022/06/18 11:01:31;;;;;;;6.53;1.95;;;34.30;40.40;;;;;;5032950;28;20114;-64
2022/06/18 11:04:01;;;;;;;2.17;1.60;;;34.30;40.80;;;;;;5033529;28;20122;-59
2022/06/18 11:06:28;;;;;;;2.40;1.42;;;34.40;41.10;;;;;;5034430;28;20060;-63
2022/06/18 11:08:58;;;;;;;1.98;1.65;;;34.40;41.30;;;;;;5032186;28;20153;-63
2022/06/18 11:11:38;;;;;;;2.20;1.50;;;34.40;39.20;;;;;;5034693;28;20108;-63
2022/06/18 11:14:16;;;;;;;2.58;1.23;;;34.20;40.20;;;;;;5027414;28;20655;-62
2022/06/18 11:16:51;;;;;;;2.28;1.10;;;34.10;42.60;;;;;;5017132;28;20122;-62
2022/06/18 11:19:32;;;;;;;1.60;1.50;;;34.20;41.50;;;;;;5033871;28;20136;-62
2022/06/18 11:22:17;;;;;;;5.10;1.70;;;34.20;41.20;;;;;;5034979;28;20059;-61
2022/06/18 11:24:51;;;;;;;2.03;1.40;;;34.20;42.30;;;;;;5034336;28;20041;-63
2022/06/18 11:27:18;;;;;;;8.05;2.15;;;34.20;42.30;;;;;;5033959;28;20695;-62
2022/06/18 11:29:49;;;;;;;1.90;1.30;;;34.20;41.10;;;;;;5033553;28;20067;-63
2022/06/18 11:32:15;;;;;;;2.72;1.35;;;34.20;40.90;;;;;;5033192;28;20099;-63
2022/06/18 11:35:06;;;;;;;7.05;1.60;;;34.20;39.40;;;;;;5034450;28;20799;-62
2022/06/18 11:37:33;;;;;;;2.60;1.08;;;34.10;40.00;;;;;;5034836;28;20056;-63
2022/06/18 11:40:03;;;;;;;3.45;1.08;;;34.10;39.50;;;;;;5034377;28;20045;-63
2022/06/18 11:42:37;;;;;;;3.38;2.25;;;34.10;39.20;;;;;;5033643;28;20076;-63
2022/06/18 11:45:06;;;;;;;4.80;1.65;;;34.20;38.20;;;;;;5032753;28;20498;-63
2022/06/18 11:47:41;;;;;;;4.38;1.75;;;34.30;37.90;;;;;;5033484;28;20073;-63
2022/06/18 11:50:23;;;;;;;3.67;1.63;;;34.40;38.00;;;;;;5034240;28;20115;-63
2022/06/18 11:53:00;;;;;;;6.40;1.77;;;34.40;37.90;;;;;;5031786;28;20053;-63
2022/06/18 11:55:33;;;;;;;4.97;1.67;;;34.50;39.10;;;;;;5034487;28;20693;-63
2022/06/18 11:58:20;;;;;;;6.07;1.65;;;34.50;37.90;;;;;;5033961;28;20451;-63
2022/06/18 12:01:07;;;;;;;;;;;34.50;38.60;;;;;;5034580;28;20130;-63
2022/06/18 12:03:37;;;;;;;3.67;1.73;;;34.60;39.00;;;;;;5033104;28;19967;-63
2022/06/18 12:06:07;;;;;;;3.42;1.25;;;34.70;38.80;;;;;;5033136;28;20519;-62
2022/06/18 12:08:34;;;;;;;2.92;1.50;;;34.70;39.50;;;;;;5033590;28;20052;-62
2022/06/18 12:11:32;;;;;;;2.88;1.30;;;34.60;39.10;;;;;;5034490;28;20041;-63
2022/06/18 12:14:41;;;;;;;1.80;1.30;;;34.60;38.20;;;;;;5032184;28;20041;-63
2022/06/18 12:17:26;;;;;;;4.70;2.20;;;34.60;37.80;;;;;;5032388;28;20114;-62
2022/06/18 12:20:34;;;;;;;2.25;1.40;;;34.70;36.80;;;;;;5036833;28;20865;-62
2022/06/18 12:23:18;;;;;;;6.40;1.60;;;34.70;37.60;;;;;;4995162;28;20914;-62
2022/06/18 12:26:09;;;;;;;4.07;1.60;;;34.60;37.30;;;;;;4994322;28;20516;-62
2022/06/18 12:29:17;;;;;;;5.03;1.25;;;34.60;38.20;;;;;;5012353;28;20045;-62
2022/06/18 12:31:48;;;;;;;;;;;34.60;39.50;;;;;;5015679;28;20057;-62
2022/06/18 12:34:34;;;;;;;3.53;1.20;;;34.60;38.50;;;;;;5017832;28;19968;-62
2022/06/18 12:37:30;;;;;;;4.80;1.70;;;34.60;37.70;;;;;;5016176;28;20690;-62
2022/06/18 12:40:32;;;;;;;5.78;2.05;;;34.70;38.50;;;;;;5001839;28;20828;-63
2022/06/18 12:43:15;;;;;;;3.58;1.60;;;34.70;38.10;;;;;;5033612;28;20110;-62
2022/06/18 12:46:03;;;;;;;3.72;1.70;;;34.70;38.40;;;;;;5035696;28;20049;-63
2022/06/18 12:49:03;;;;;;;2.08;1.40;;;34.60;38.60;;;;;;5036805;28;20079;-62
2022/06/18 12:51:45;;;;;;;3.80;1.70;;;34.60;39.40;;;;;;5035794;28;20045;-62
2022/06/18 12:54:21;;;;;;;5.45;1.70;;;34.60;39.30;;;;;;5037491;28;20049;-62
2022/06/18 12:57:02;;;;;;;2.80;1.67;;;34.70;38.00;;;;;;5037022;28;20053;-62
2022/06/18 12:59:55;;;;;;;7.40;2.17;;;34.80;37.40;;;;;;5036402;28;20045;-62
2022/06/18 13:03:03;;;;;;;8.18;2.47;;;34.70;36.80;;;;;;5036492;28;20239;-62
2022/06/18 13:06:10;;;;;;;17.73;2.40;;;34.60;36.20;;;;;;5035265;28;20268;-63
2022/06/18 13:08:55;;;;;;;6.35;2.00;;;34.40;37.70;;;;;;5010729;28;20131;-63
2022/06/18 13:11:37;;;;;;;11.70;2.53;;;34.40;37.10;;;;;;5017107;28;20045;-63
2022/06/18 13:14:42;;;;;;;7.78;2.60;;;34.30;36.30;;;;;;5016293;28;20049;-62
2022/06/18 13:17:28;;;;;;;6.18;2.30;;;34.30;37.70;;;;;;5032719;28;20481;-63
2022/06/18 13:20:00;;;;;;;7.63;2.15;;;34.30;39.80;;;;;;5036233;28;20045;-63
2022/06/18 13:22:27;;;;;;;7.03;2.78;;;34.30;39.40;;;;;;5037314;28;20056;-62
2022/06/18 13:28:16;;;;;;;20.23;3.30;;;34.50;37.90;;;;;;5036039;28;20151;-61
2022/06/18 13:31:00;;;;;;;14.52;3.70;;;34.40;35.90;;;;;;5034808;28;20045;-62
2022/06/18 13:33:59;;;;;;;22.13;4.47;;;34.30;36.30;;;;;;5034986;28;20049;-62
2022/06/18 13:36:44;;;;;;;22.67;5.32;;;34.20;34.20;;;;;;5036006;28;20049;-62
2022/06/18 13:39:23;;;;;;;17.25;4.43;;;34.20;31.40;;;;;;5035791;28;20279;-62
2022/06/18 13:42:15;;;;;;;23.42;3.83;;;34.10;33.00;;;;;;5034241;28;20048;-62
2022/06/18 13:45:20;;;;;;;18.10;4.10;;;34.00;32.00;;;;;;5017221;28;20357;-63
2022/06/18 13:48:25;;;;;;;12.93;2.58;;;34.00;34.40;;;;;;5034420;28;20068;-64